Time;durP1;ratioP1;P1;durP2;ratioP2;P2;SDS_P1;SDS_P2;PMS_P1;PMS_P2;Temp;Humidity;BMP_temperature;BMP_pressure;BME280_temperature;BME280_humidity;BME280_pressure;Samples;Min_cycle;Max_cycle;Signal;HPM_P1;HPM_P2
2022/01/09 00:02:01;;;;;;;11.20;10.20;;;0.30;17.40;;;;;;6379244;27;20245;-56
2022/01/09 00:05:04;;;;;;;11.60;10.60;;;0.60;16.70;;;;;;6383258;27;20336;-57
2022/01/09 00:08:13;;;;;;;11.23;10.20;;;0.60;16.90;;;;;;6379615;27;20235;-56
2022/01/09 00:11:18;;;;;;;15.50;10.03;;;0.60;15.90;;;;;;6383179;27;20226;-55
2022/01/09 00:14:21;;;;;;;11.37;10.33;;;0.50;16.20;;;;;;6374852;27;20264;-55
2022/01/09 00:17:23;;;;;;;10.27;9.27;;;0.70;16.10;;;;;;6378040;27;20614;-57
2022/01/09 00:20:26;;;;;;;12.00;9.63;;;0.60;15.30;;;;;;6383868;27;20284;-57
2022/01/09 00:23:31;;;;;;;11.00;9.97;;;0.50;14.90;;;;;;6381837;27;20719;-58
2022/01/09 00:26:34;;;;;;;10.23;9.47;;;0.60;14.20;;;;;;6383848;27;20321;-57
2022/01/09 00:29:36;;;;;;;10.10;9.10;;;0.40;14.00;;;;;;6383600;27;20305;-57
2022/01/09 00:32:39;;;;;;;10.63;9.60;;;0.40;13.70;;;;;;6377538;27;20372;-57
2022/01/09 00:35:42;;;;;;;10.10;9.13;;;0.50;14.00;;;;;;6384103;27;20389;-57
2022/01/09 00:38:46;;;;;;;9.93;9.03;;;0.30;14.00;;;;;;6382438;27;20782;-56
2022/01/09 00:41:49;;;;;;;10.00;9.07;;;0.50;13.50;;;;;;6379558;27;20235;-57
2022/01/09 00:44:51;;;;;;;11.23;10.23;;;0.20;14.40;;;;;;6383508;27;20406;-51
2022/01/09 00:47:56;;;;;;;9.50;8.60;;;0.40;15.00;;;;;;6383530;27;20256;-55
2022/01/09 00:50:59;;;;;;;9.70;8.70;;;0.30;14.90;;;;;;6380370;27;20422;-56
2022/01/09 00:54:03;;;;;;;9.57;8.77;;;0.30;14.70;;;;;;6388505;27;20595;-55
2022/01/09 00:57:06;;;;;;;9.93;9.03;;;0.10;14.00;;;;;;6388803;27;20291;-57
2022/01/09 01:00:10;;;;;;;9.57;8.67;;;0.30;15.20;;;;;;6383826;27;20474;-57
2022/01/09 01:03:13;;;;;;;9.40;8.60;;;0.10;15.00;;;;;;6382047;27;20320;-56
2022/01/09 01:06:16;;;;;;;9.70;8.83;;;0.40;14.60;;;;;;6388826;27;20376;-56
2022/01/09 01:09:20;;;;;;;9.50;8.80;;;0.30;14.90;;;;;;6384231;27;20750;-57
2022/01/09 01:12:24;;;;;;;12.00;9.90;;;0.20;14.60;;;;;;6388440;27;20540;-58
2022/01/09 01:15:27;;;;;;;12.90;9.27;;;0.20;14.00;;;;;;6376707;27;20367;-56
2022/01/09 01:18:29;;;;;;;9.63;8.97;;;0.40;15.30;;;;;;6381145;27;20245;-57
2022/01/09 01:21:33;;;;;;;10.57;9.57;;;0.40;15.20;;;;;;6387899;27;20290;-56
2022/01/09 01:24:38;;;;;;;10.20;9.17;;;0.20;15.40;;;;;;6385843;27;20250;-58
2022/01/09 01:27:42;;;;;;;11.27;10.07;;;0.20;15.10;;;;;;6385763;27;20474;-56
2022/01/09 01:30:45;;;;;;;11.53;10.33;;;0.10;14.90;;;;;;6383515;27;20517;-56
2022/01/09 01:33:47;;;;;;;10.63;9.57;;;0.00;15.00;;;;;;6384744;27;20254;-58
2022/01/09 01:36:50;;;;;;;10.43;9.40;;;0.10;15.60;;;;;;6356547;27;20238;-57
2022/01/09 01:39:54;;;;;;;11.60;10.40;;;0.20;16.20;;;;;;6388193;27;20242;-56
2022/01/09 01:42:57;;;;;;;10.30;9.37;;;0.10;16.40;;;;;;6383876;27;20644;-56
2022/01/09 01:46:01;;;;;;;11.73;9.40;;;-0.10;16.90;;;;;;6387354;27;20833;-58
2022/01/09 01:49:05;;;;;;;10.17;9.13;;;0.10;15.90;;;;;;6385132;27;20699;-56
2022/01/09 01:52:09;;;;;;;10.60;9.50;;;0.10;15.10;;;;;;6380845;27;20466;-57
2022/01/09 01:55:15;;;;;;;12.53;9.10;;;-0.10;14.50;;;;;;6388054;27;20283;-57
2022/01/09 01:58:18;;;;;;;10.53;9.53;;;0.30;13.20;;;;;;6383443;27;20372;-56
2022/01/09 02:01:20;;;;;;;10.23;9.33;;;0.20;13.80;;;;;;6386548;27;20766;-56
2022/01/09 02:04:23;;;;;;;11.93;9.80;;;0.30;12.80;;;;;;6383260;27;20250;-56
2022/01/09 02:07:28;;;;;;;10.40;9.33;;;0.20;12.50;;;;;;6384897;27;20716;-56
2022/01/09 02:10:32;;;;;;;9.87;8.87;;;0.40;11.80;;;;;;6387909;27;20223;-56
2022/01/09 02:13:37;;;;;;;10.00;9.00;;;0.20;11.80;;;;;;6377369;27;20602;-56
2022/01/09 02:16:41;;;;;;;9.93;9.07;;;0.30;11.70;;;;;;6383915;27;20314;-55
2022/01/09 02:19:51;;;;;;;10.50;9.40;;;0.50;11.90;;;;;;6385429;27;20892;-55
2022/01/09 02:22:54;;;;;;;13.63;9.70;;;0.40;11.20;;;;;;6386284;27;20637;-56
2022/01/09 02:25:57;;;;;;;11.73;10.23;;;0.50;11.40;;;;;;6384349;27;20321;-57
2022/01/09 02:28:59;;;;;;;10.17;9.20;;;0.40;11.70;;;;;;6382163;27;20266;-55
2022/01/09 02:32:02;;;;;;;10.50;9.57;;;0.30;12.00;;;;;;6374060;27;20840;-57
2022/01/09 02:35:07;;;;;;;11.70;10.27;;;0.40;11.00;;;;;;6385757;27;20837;-57
2022/01/09 02:38:10;;;;;;;13.57;9.70;;;0.30;10.90;;;;;;6377218;27;20339;-57
2022/01/09 02:41:12;;;;;;;11.13;10.17;;;0.40;11.50;;;;;;6380768;27;20242;-57
2022/01/09 02:44:15;;;;;;;10.87;9.77;;;0.30;11.80;;;;;;6384519;27;20302;-58
2022/01/09 02:47:19;;;;;;;15.47;10.20;;;0.30;11.90;;;;;;6383617;27;20306;-56
2022/01/09 02:50:33;;;;;;;10.27;9.37;;;0.10;12.30;;;;;;6385914;27;20258;-57
2022/01/09 02:53:37;;;;;;;11.53;9.93;;;0.30;12.10;;;;;;6380556;27;20230;-56
2022/01/09 02:56:40;;;;;;;10.53;9.53;;;0.10;12.00;;;;;;6384262;27;20572;-58
2022/01/09 02:59:43;;;;;;;10.23;9.23;;;0.10;11.80;;;;;;6359569;22;20253;-78
2022/01/09 03:02:46;;;;;;;10.07;8.87;;;0.00;11.60;;;;;;6309542;28;20263;-80
2022/01/09 03:05:50;;;;;;;10.47;9.43;;;0.50;11.90;;;;;;6317645;28;20224;-78
2022/01/09 03:08:54;;;;;;;10.97;9.97;;;0.00;11.60;;;;;;6327446;28;20242;-78
2022/01/09 03:11:57;;;;;;;10.23;9.23;;;0.40;11.90;;;;;;6348131;28;20252;-76
2022/01/09 03:15:01;;;;;;;11.53;9.63;;;0.10;11.60;;;;;;6339719;28;20259;-80
2022/01/09 03:18:03;;;;;;;9.90;8.93;;;0.40;13.00;;;;;;6333558;28;20228;-80
2022/01/09 03:21:08;;;;;;;10.73;9.73;;;0.20;12.60;;;;;;6332474;28;20232;-79
2022/01/09 03:24:10;;;;;;;11.10;10.07;;;0.20;12.90;;;;;;6330564;28;20314;-79
2022/01/09 03:27:13;;;;;;;10.60;9.57;;;0.30;12.50;;;;;;6334913;28;20735;-78
2022/01/09 03:30:18;;;;;;;12.43;9.70;;;0.30;11.80;;;;;;6335638;28;20244;-78
2022/01/09 03:33:21;;;;;;;10.10;9.20;;;0.20;11.70;;;;;;6327945;28;20711;-79
2022/01/09 03:36:25;;;;;;;9.80;8.80;;;0.50;12.50;;;;;;6328661;28;20244;-79
2022/01/09 03:39:28;;;;;;;10.60;9.13;;;0.40;11.90;;;;;;6334628;28;20774;-79
2022/01/09 03:42:31;;;;;;;10.40;9.30;;;0.20;11.80;;;;;;6328279;28;20329;-79
2022/01/09 03:45:34;;;;;;;10.10;9.10;;;0.40;11.90;;;;;;6330241;28;20858;-78
2022/01/09 03:48:37;;;;;;;9.50;8.70;;;0.20;11.70;;;;;;6330282;28;20341;-79
2022/01/09 03:51:44;;;;;;;12.10;9.87;;;0.40;11.90;;;;;;6328812;28;20301;-79
2022/01/09 03:54:46;;;;;;;10.17;9.27;;;0.40;11.70;;;;;;6336371;28;20285;-75
2022/01/09 03:57:50;;;;;;;10.23;9.20;;;0.20;11.70;;;;;;6331863;28;20297;-79
2022/01/09 04:00:53;;;;;;;12.77;9.27;;;0.20;12.30;;;;;;6331466;28;20673;-78
2022/01/09 04:03:56;;;;;;;10.33;9.20;;;0.20;12.70;;;;;;6325735;28;20249;-78
2022/01/09 04:07:00;;;;;;;9.90;8.97;;;0.40;13.10;;;;;;6329506;28;20720;-78
2022/01/09 04:10:04;;;;;;;10.57;9.43;;;0.10;12.80;;;;;;6336890;28;20618;-76
2022/01/09 04:13:31;;;;;;;10.57;8.63;;;0.20;12.80;;;;;;6326746;28;20326;-77
2022/01/09 04:16:37;;;;;;;10.23;8.30;;;0.10;12.60;;;;;;6329396;28;20707;-77
2022/01/09 04:19:40;;;;;;;9.43;8.63;;;0.40;12.10;;;;;;6339696;28;20279;-79
2022/01/09 04:22:44;;;;;;;10.07;9.10;;;0.00;11.60;;;;;;6330750;28;20224;-79
2022/01/09 04:25:47;;;;;;;10.23;8.57;;;0.40;12.40;;;;;;6321212;28;20284;-77
2022/01/09 04:28:50;;;;;;;9.03;8.23;;;0.10;11.70;;;;;;6329741;28;20261;-80
2022/01/09 04:31:53;;;;;;;9.90;8.93;;;0.30;12.40;;;;;;6321644;27;20237;-80
2022/01/09 04:34:56;;;;;;;8.73;8.03;;;0.50;11.90;;;;;;6347842;27;20723;-78
2022/01/09 04:38:00;;;;;;;9.60;8.80;;;0.00;11.60;;;;;;6334697;27;20247;-78
2022/01/09 04:41:03;;;;;;;8.63;7.87;;;0.10;11.70;;;;;;6341143;27;20276;-78
2022/01/09 04:44:06;;;;;;;8.70;7.70;;;0.50;11.70;;;;;;6335309;28;20567;-79
2022/01/09 04:47:13;;;;;;;9.00;8.20;;;0.30;10.40;;;;;;6342846;27;20327;-78
2022/01/09 04:50:20;;;;;;;8.13;7.53;;;0.30;10.10;;;;;;6326338;28;20243;-79
2022/01/09 04:53:24;;;;;;;8.83;8.20;;;0.30;10.20;;;;;;6342233;27;20235;-77
2022/01/09 04:56:28;;;;;;;8.70;8.00;;;0.50;10.20;;;;;;6329378;27;20233;-79
2022/01/09 04:59:31;;;;;;;8.60;7.70;;;0.20;8.90;;;;;;6335183;27;20319;-81
2022/01/09 05:02:35;;;;;;;9.03;7.73;;;0.20;9.10;;;;;;6337052;27;20788;-77
2022/01/09 05:05:38;;;;;;;8.60;7.47;;;0.30;8.40;;;;;;6326297;28;20865;-79
2022/01/09 05:08:43;;;;;;;7.73;7.03;;;0.30;9.10;;;;;;6322783;28;20266;-78
2022/01/09 05:11:46;;;;;;;8.27;7.47;;;0.50;7.90;;;;;;6318361;28;20428;-79
2022/01/09 05:14:53;;;;;;;8.10;7.47;;;0.40;8.50;;;;;;6192553;27;20245;-78
2022/01/09 05:17:59;;;;;;;7.27;6.77;;;0.20;8.90;;;;;;5744396;28;20627;-80
2022/01/09 05:21:02;;;;;;;8.60;7.63;;;0.40;9.30;;;;;;5729022;27;20240;-78
2022/01/09 05:24:06;;;;;;;7.80;7.03;;;0.40;8.60;;;;;;5732082;27;20369;-80
2022/01/09 05:27:09;;;;;;;8.47;7.63;;;0.60;8.30;;;;;;5837732;27;20236;-79
2022/01/09 05:30:12;;;;;;;8.37;7.73;;;0.50;8.10;;;;;;5725803;28;20296;-78
2022/01/09 05:33:15;;;;;;;9.03;8.13;;;0.60;8.50;;;;;;5754324;27;20225;-77
2022/01/09 05:36:18;;;;;;;7.93;7.13;;;0.60;8.50;;;;;;5887501;28;20234;-77
2022/01/09 05:39:22;;;;;;;10.17;7.93;;;0.30;7.90;;;;;;5731870;28;20404;-81
2022/01/09 05:42:25;;;;;;;8.73;7.83;;;0.40;7.80;;;;;;5738519;27;20288;-79
2022/01/09 05:45:28;;;;;;;7.97;7.40;;;0.20;7.80;;;;;;5738609;27;20675;-79
2022/01/09 05:48:31;;;;;;;8.10;7.50;;;0.50;8.10;;;;;;5728076;28;20240;-80
2022/01/09 05:51:34;;;;;;;8.53;7.70;;;0.30;8.20;;;;;;5723049;28;20399;-80
2022/01/09 05:54:38;;;;;;;8.13;7.53;;;0.60;8.70;;;;;;5853633;27;20262;-77
2022/01/09 05:57:42;;;;;;;8.67;7.97;;;0.20;8.70;;;;;;5892730;27;20787;-77
2022/01/09 06:00:44;;;;;;;8.70;7.83;;;0.40;8.00;;;;;;5727868;28;20240;-77
2022/01/09 06:03:47;;;;;;;9.07;8.17;;;0.50;7.30;;;;;;5737453;28;20346;-78
2022/01/09 06:06:50;;;;;;;8.00;7.50;;;0.20;7.80;;;;;;5841306;27;20224;-78
2022/01/09 06:09:54;;;;;;;7.77;7.23;;;0.50;8.10;;;;;;5903145;28;20324;-79
2022/01/09 06:12:57;;;;;;;9.37;8.40;;;0.60;7.50;;;;;;5755920;28;20428;-78
2022/01/09 06:16:00;;;;;;;8.53;7.53;;;0.40;6.90;;;;;;5735620;27;20220;-79
2022/01/09 06:19:03;;;;;;;8.63;7.77;;;0.70;6.50;;;;;;5721781;27;20717;-79
2022/01/09 06:22:06;;;;;;;9.17;8.13;;;0.50;6.50;;;;;;5761188;27;21810;-78
2022/01/09 06:25:11;;;;;;;8.20;7.50;;;0.40;6.50;;;;;;5747688;27;20888;-76
2022/01/09 06:28:13;;;;;;;7.93;7.33;;;0.70;7.30;;;;;;5729214;28;20282;-79
2022/01/09 06:31:16;;;;;;;8.53;7.93;;;0.80;6.50;;;;;;5729595;27;20253;-77
2022/01/09 06:34:20;;;;;;;8.43;7.60;;;0.50;6.50;;;;;;5841885;27;20384;-77
2022/01/09 06:37:22;;;;;;;8.17;7.53;;;0.70;6.50;;;;;;5727148;28;20262;-77
2022/01/09 06:40:27;;;;;;;9.97;7.70;;;0.80;6.00;;;;;;6127636;28;20291;-79
2022/01/09 06:43:29;;;;;;;8.80;8.00;;;0.90;6.60;;;;;;6322033;27;20236;-79
2022/01/09 06:46:32;;;;;;;8.23;7.47;;;0.80;7.70;;;;;;6332474;27;20244;-78
2022/01/09 06:49:35;;;;;;;8.87;8.07;;;0.50;7.40;;;;;;6295262;27;20282;-79
2022/01/09 06:52:38;;;;;;;8.10;7.50;;;0.50;6.80;;;;;;6132197;28;20281;-75
2022/01/09 06:55:43;;;;;;;8.13;7.43;;;0.60;4.90;;;;;;6299209;27;20579;-78
2022/01/09 06:58:46;;;;;;;8.23;7.53;;;0.80;5.20;;;;;;6328216;28;20244;-79
2022/01/09 07:01:50;;;;;;;8.33;7.63;;;1.00;5.30;;;;;;6298147;28;20300;-76
2022/01/09 07:04:53;;;;;;;7.87;7.33;;;0.70;4.50;;;;;;6338585;28;20676;-77
2022/01/09 07:07:55;;;;;;;8.33;7.53;;;1.00;4.40;;;;;;6293619;27;20316;-79
2022/01/09 07:11:00;;;;;;;9.23;8.30;;;0.90;3.70;;;;;;6334662;28;20251;-79
2022/01/09 07:14:02;;;;;;;8.40;7.70;;;1.00;3.00;;;;;;6054899;27;20245;-78
2022/01/09 07:17:05;;;;;;;8.33;7.73;;;0.80;3.40;;;;;;5940459;27;20293;-79
2022/01/09 07:20:10;;;;;;;8.67;7.87;;;1.10;4.30;;;;;;6297092;28;20247;-80
2022/01/09 07:23:12;;;;;;;9.33;8.47;;;1.00;4.20;;;;;;6334336;28;20243;-79
2022/01/09 07:26:16;;;;;;;8.30;7.70;;;1.00;3.20;;;;;;6292319;28;20327;-79
2022/01/09 07:29:19;;;;;;;8.80;7.93;;;0.80;3.00;;;;;;6334503;28;20494;-79
2022/01/09 07:32:22;;;;;;;8.70;7.90;;;0.80;3.60;;;;;;6331915;28;20769;-80
2022/01/09 07:35:26;;;;;;;9.03;8.23;;;1.00;3.00;;;;;;6316404;28;20229;-79
2022/01/09 07:38:29;;;;;;;9.83;8.53;;;1.00;3.10;;;;;;6179856;27;20761;-78
2022/01/09 07:41:33;;;;;;;8.47;7.77;;;0.80;4.00;;;;;;6005227;28;20788;-78
2022/01/09 07:44:36;;;;;;;9.93;8.20;;;0.90;3.50;;;;;;6318847;28;20236;-78
2022/01/09 07:47:39;;;;;;;9.03;8.17;;;0.90;2.40;;;;;;6287234;28;20565;-78
2022/01/09 07:50:43;;;;;;;9.00;8.20;;;1.10;1.60;;;;;;6273597;28;20244;-80
2022/01/09 07:53:46;;;;;;;8.40;7.80;;;1.00;2.00;;;;;;6318763;28;20311;-81
2022/01/09 07:56:50;;;;;;;9.70;8.80;;;1.00;1.00;;;;;;6300159;28;20225;-78
2022/01/09 07:59:53;;;;;;;9.70;8.80;;;1.10;1.00;;;;;;6273874;28;20747;-78
2022/01/09 08:02:55;;;;;;;9.77;8.87;;;1.20;1.00;;;;;;6252406;28;20313;-81
2022/01/09 08:05:58;;;;;;;9.73;8.80;;;1.40;1.00;;;;;;6328428;28;20803;-78
2022/01/09 08:09:01;;;;;;;9.07;8.27;;;1.30;1.00;;;;;;6312571;28;20228;-80
2022/01/09 08:12:08;;;;;;;9.43;8.43;;;1.00;1.00;;;;;;6323108;28;20244;-77
2022/01/09 08:15:12;;;;;;;10.20;9.30;;;1.40;1.00;;;;;;6300307;28;20310;-80
2022/01/09 08:18:15;;;;;;;13.23;10.30;;;1.20;1.00;;;;;;6310906;28;20229;-82
2022/01/09 08:21:19;;;;;;;12.77;9.53;;;1.50;1.00;;;;;;6315542;28;20358;-80
2022/01/09 08:24:22;;;;;;;9.30;8.40;;;1.50;1.00;;;;;;6308531;27;20450;-77
2022/01/09 08:27:26;;;;;;;10.40;9.50;;;1.60;1.00;;;;;;6321924;28;20252;-80
2022/01/09 08:30:29;;;;;;;10.60;9.43;;;1.40;1.00;;;;;;6304595;28;20243;-80
2022/01/09 08:33:32;;;;;;;9.97;8.97;;;1.30;1.00;;;;;;6310040;28;20323;-78
2022/01/09 08:36:35;;;;;;;10.17;9.27;;;1.50;1.00;;;;;;6320488;28;20220;-78
2022/01/09 08:39:38;;;;;;;9.63;8.63;;;1.60;1.00;;;;;;6316433;28;20232;-81
2022/01/09 08:42:43;;;;;;;9.37;8.50;;;1.70;1.00;;;;;;6310172;28;20228;-78
2022/01/09 08:45:45;;;;;;;10.00;8.60;;;1.60;1.00;;;;;;6314310;28;20376;-80
2022/01/09 08:48:48;;;;;;;9.90;8.70;;;1.60;1.00;;;;;;6310481;28;20494;-80
2022/01/09 08:51:52;;;;;;;8.73;7.90;;;1.60;1.00;;;;;;6311294;28;20739;-80
2022/01/09 08:54:55;;;;;;;9.57;8.60;;;1.60;1.00;;;;;;6309948;28;20310;-83
2022/01/09 08:57:59;;;;;;;9.70;9.00;;;1.70;1.00;;;;;;6310188;28;20345;-82
2022/01/09 09:01:02;;;;;;;9.97;9.00;;;1.50;1.00;;;;;;6310922;28;20275;-80
2022/01/09 09:04:05;;;;;;;9.97;9.07;;;1.70;1.00;;;;;;6332713;28;20239;-79
2022/01/09 09:07:09;;;;;;;9.27;8.47;;;1.60;1.00;;;;;;6350050;28;20247;-78
2022/01/09 09:10:13;;;;;;;9.80;8.87;;;1.40;1.00;;;;;;6340430;28;20245;-80
2022/01/09 09:13:17;;;;;;;10.10;9.10;;;1.90;1.00;;;;;;6333929;27;20289;-79
2022/01/09 09:16:19;;;;;;;9.40;8.60;;;2.10;1.00;;;;;;6326068;27;20609;-80
2022/01/09 09:19:22;;;;;;;9.73;8.83;;;1.80;1.00;;;;;;6333284;28;20270;-78
2022/01/09 09:22:26;;;;;;;8.93;8.17;;;1.90;1.00;;;;;;6320944;28;20232;-82
2022/01/09 09:25:29;;;;;;;8.33;7.70;;;1.80;1.00;;;;;;6307974;28;20297;-82
2022/01/09 09:28:33;;;;;;;9.47;8.60;;;1.90;1.00;;;;;;6308522;28;20225;-80
2022/01/09 09:31:38;;;;;;;8.90;8.17;;;1.70;1.00;;;;;;6310841;28;20237;-79
2022/01/09 09:34:41;;;;;;;8.70;8.10;;;1.80;1.00;;;;;;6335002;27;20244;-80
2022/01/09 09:37:44;;;;;;;9.40;8.50;;;2.00;1.00;;;;;;6316529;27;20413;-79
2022/01/09 09:40:47;;;;;;;8.70;7.93;;;2.00;1.00;;;;;;6329117;28;20249;-80
2022/01/09 09:43:51;;;;;;;8.97;8.17;;;2.10;1.00;;;;;;6320474;28;20256;-78
2022/01/09 09:46:55;;;;;;;9.10;8.37;;;2.10;1.00;;;;;;6318220;28;20232;-82
2022/01/09 09:49:57;;;;;;;8.47;7.80;;;2.10;1.00;;;;;;6308461;28;20319;-82
2022/01/09 09:53:01;;;;;;;8.90;8.10;;;2.30;1.00;;;;;;6307158;28;20275;-80
2022/01/09 09:56:05;;;;;;;9.17;8.47;;;2.10;1.00;;;;;;6308837;28;20229;-79
2022/01/09 09:59:09;;;;;;;8.97;8.23;;;2.10;1.00;;;;;;6336480;27;20796;-81
2022/01/09 10:02:19;;;;;;;9.77;8.20;;;2.30;1.00;;;;;;6331815;27;20767;-78
2022/01/09 10:05:23;;;;;;;9.73;8.77;;;2.40;1.00;;;;;;6327147;28;20324;-78
2022/01/09 10:08:36;;;;;;;8.70;7.97;;;2.50;1.00;;;;;;6329464;28;20362;-81
2022/01/09 10:11:44;;;;;;;8.67;8.00;;;2.40;1.00;;;;;;6330615;28;20232;-80
2022/01/09 10:14:53;;;;;;;10.67;8.37;;;2.40;1.00;;;;;;6334300;28;20251;-77
2022/01/09 10:17:56;;;;;;;8.63;8.03;;;2.60;1.00;;;;;;6333180;27;20327;-83
2022/01/09 10:21:06;;;;;;;8.87;8.00;;;2.70;1.00;;;;;;6321472;28;20317;-79
2022/01/09 10:24:11;;;;;;;8.10;7.40;;;2.70;1.00;;;;;;6328282;27;20235;-82
2022/01/09 10:27:27;;;;;;;8.70;8.13;;;2.80;1.00;;;;;;6322008;27;20290;-80
2022/01/09 10:30:33;;;;;;;9.27;7.90;;;3.10;1.00;;;;;;6332974;28;20236;-80
2022/01/09 10:33:38;;;;;;;7.83;7.20;;;2.90;1.00;;;;;;6327455;27;20241;-81
2022/01/09 10:36:42;;;;;;;8.40;7.60;;;3.00;1.00;;;;;;6320543;27;20917;-80
2022/01/09 10:39:48;;;;;;;8.20;7.53;;;3.10;1.00;;;;;;6320027;28;20241;-79
2022/01/09 10:43:03;;;;;;;9.30;8.53;;;3.20;1.00;;;;;;6336857;27;20745;-79
2022/01/09 10:46:09;;;;;;;8.70;8.00;;;2.90;1.00;;;;;;6326288;27;20246;-78
2022/01/09 10:49:13;;;;;;;8.27;7.67;;;3.20;1.00;;;;;;6334529;28;20739;-80
2022/01/09 10:52:19;;;;;;;8.33;7.73;;;2.90;1.00;;;;;;6332543;27;20266;-81
2022/01/09 10:55:31;;;;;;;8.90;7.67;;;3.20;1.00;;;;;;6320213;27;20252;-77
2022/01/09 10:58:36;;;;;;;7.80;7.20;;;3.10;1.00;;;;;;6330837;28;20314;-79
2022/01/09 11:01:40;;;;;;;9.40;8.20;;;3.20;1.00;;;;;;6320718;28;20787;-81
2022/01/09 11:04:45;;;;;;;8.83;7.70;;;3.30;1.00;;;;;;6329994;28;20718;-81
2022/01/09 11:07:50;;;;;;;8.67;7.73;;;3.20;1.00;;;;;;6330229;28;20224;-79
2022/01/09 11:10:53;;;;;;;8.53;7.77;;;3.30;1.00;;;;;;6333194;27;20240;-79
2022/01/09 11:13:58;;;;;;;7.50;7.03;;;3.20;1.00;;;;;;6332579;28;20239;-81
2022/01/09 11:17:05;;;;;;;7.83;7.23;;;3.10;1.00;;;;;;6333431;28;20299;-82
2022/01/09 11:20:09;;;;;;;8.63;7.83;;;3.40;1.00;;;;;;6319406;28;20309;-77
2022/01/09 11:23:13;;;;;;;8.30;7.60;;;3.30;1.00;;;;;;6310296;28;20477;-78
2022/01/09 11:26:17;;;;;;;8.10;7.30;;;3.40;1.00;;;;;;6325077;27;20630;-77
2022/01/09 11:29:31;;;;;;;8.17;7.47;;;3.50;1.00;;;;;;6325600;27;20352;-79
2022/01/09 11:32:50;;;;;;;8.20;7.60;;;3.60;1.00;;;;;;6322356;27;20228;-80
2022/01/09 11:36:04;;;;;;;7.97;7.27;;;3.60;1.00;;;;;;6336395;27;20223;-82
2022/01/09 11:39:12;;;;;;;8.13;7.50;;;3.70;1.00;;;;;;6327891;28;20247;-86
2022/01/09 11:42:16;;;;;;;7.57;6.97;;;3.60;1.00;;;;;;6331416;28;20315;-78
2022/01/09 11:45:42;;;;;;;8.80;8.10;;;3.50;1.00;;;;;;6331561;28;20305;-79
2022/01/09 11:49:01;;;;;;;7.63;6.93;;;3.50;1.00;;;;;;6318215;28;20315;-78
2022/01/09 11:52:04;;;;;;;7.73;7.03;;;3.70;1.00;;;;;;6335454;28;20237;-80
2022/01/09 11:55:08;;;;;;;8.00;7.30;;;3.60;1.00;;;;;;6325432;28;20738;-79
2022/01/09 11:58:12;;;;;;;8.33;7.70;;;3.60;1.00;;;;;;6334636;28;20228;-78
2022/01/09 12:01:34;;;;;;;8.33;7.57;;;3.90;1.00;;;;;;6326330;28;20228;-78
2022/01/09 12:04:56;;;;;;;7.77;7.17;;;3.80;1.00;;;;;;6328485;28;20700;-78
2022/01/09 12:08:05;;;;;;;8.10;7.47;;;3.80;1.00;;;;;;6329960;28;20236;-81
2022/01/09 12:11:08;;;;;;;8.27;7.60;;;3.70;1.00;;;;;;6306921;28;20281;-79
2022/01/09 12:14:11;;;;;;;7.57;7.07;;;3.80;1.00;;;;;;6328408;28;20246;-81
2022/01/09 12:17:39;;;;;;;7.67;7.07;;;4.10;1.00;;;;;;6318320;28;20237;-81
2022/01/09 12:20:44;;;;;;;6.93;6.43;;;4.40;1.00;;;;;;6315403;28;20477;-82
2022/01/09 12:23:48;;;;;;;8.40;7.70;;;4.20;1.00;;;;;;6318775;28;20309;-79
2022/01/09 12:26:50;;;;;;;7.57;7.00;;;4.30;1.00;;;;;;6309047;28;20321;-81
2022/01/09 12:29:53;;;;;;;7.67;7.17;;;4.30;1.00;;;;;;6322000;28;20240;-79
2022/01/09 12:32:57;;;;;;;7.77;7.10;;;4.20;1.00;;;;;;6323970;28;20700;-81
2022/01/09 12:36:04;;;;;;;7.03;6.63;;;4.40;1.00;;;;;;6328797;28;20231;-80
2022/01/09 12:39:08;;;;;;;7.00;6.50;;;4.30;1.00;;;;;;6325081;28;20759;-79
2022/01/09 12:42:10;;;;;;;8.13;7.53;;;4.20;1.00;;;;;;6316251;28;20442;-80
2022/01/09 12:45:18;;;;;;;7.20;6.73;;;4.40;1.00;;;;;;6320366;28;20264;-82
2022/01/09 12:48:26;;;;;;;7.03;6.57;;;4.00;1.00;;;;;;6329343;28;20269;-77
2022/01/09 12:51:31;;;;;;;7.50;6.90;;;3.90;1.00;;;;;;6327395;27;20791;-77
2022/01/09 12:54:34;;;;;;;8.57;7.80;;;4.20;1.00;;;;;;6328475;28;20278;-79
2022/01/09 12:57:53;;;;;;;8.47;7.87;;;4.10;1.00;;;;;;6321778;27;20282;-78
2022/01/09 13:00:56;;;;;;;7.17;6.67;;;4.20;1.00;;;;;;6327305;28;20327;-79
2022/01/09 13:04:02;;;;;;;8.50;7.90;;;4.20;1.00;;;;;;6324450;28;20351;-80
2022/01/09 13:07:15;;;;;;;7.70;7.10;;;4.30;1.00;;;;;;6337183;27;20269;-78
2022/01/09 13:10:18;;;;;;;7.87;7.30;;;4.20;1.00;;;;;;6333232;28;20243;-78
2022/01/09 13:13:24;;;;;;;7.70;7.00;;;4.20;1.00;;;;;;6315228;28;20749;-80
2022/01/09 13:16:28;;;;;;;7.50;6.87;;;4.20;1.00;;;;;;6337017;27;20227;-81
2022/01/09 13:19:31;;;;;;;7.33;6.87;;;4.30;1.00;;;;;;6327620;28;20340;-79
2022/01/09 13:23:04;;;;;;;7.80;7.20;;;4.20;1.00;;;;;;6322254;28;20382;-81
2022/01/09 13:26:16;;;;;;;7.10;6.60;;;4.00;1.00;;;;;;6326463;28;20617;-76
2022/01/09 13:29:21;;;;;;;7.60;6.93;;;4.10;1.00;;;;;;6328629;28;20236;-82
2022/01/09 13:32:25;;;;;;;8.13;7.37;;;4.20;1.00;;;;;;6338241;27;20228;-83
2022/01/09 13:35:28;;;;;;;7.73;7.13;;;4.20;1.00;;;;;;6325691;27;20240;-80
2022/01/09 13:38:32;;;;;;;7.77;7.13;;;4.10;1.00;;;;;;6324605;27;20568;-74
2022/01/09 13:41:39;;;;;;;9.33;8.50;;;4.40;1.00;;;;;;6327107;28;20547;-82
2022/01/09 13:44:43;;;;;;;8.83;7.93;;;4.10;1.00;;;;;;6329208;27;20228;-81
2022/01/09 13:47:49;;;;;;;7.47;7.07;;;4.40;1.00;;;;;;6324838;28;20232;-80
2022/01/09 13:50:52;;;;;;;8.03;7.30;;;4.00;1.00;;;;;;6326949;28;20636;-80
2022/01/09 13:54:06;;;;;;;8.13;7.60;;;4.10;1.00;;;;;;6322395;28;20614;-80
2022/01/09 13:57:11;;;;;;;7.07;6.63;;;4.30;1.00;;;;;;6326410;27;20221;-82
2022/01/09 14:00:14;;;;;;;8.17;7.57;;;4.20;1.00;;;;;;6317699;27;20231;-79
2022/01/09 14:03:26;;;;;;;7.63;7.17;;;4.20;1.00;;;;;;6334668;27;20232;-79
2022/01/09 14:06:29;;;;;;;8.43;7.83;;;4.10;1.00;;;;;;6323838;28;20233;-81
2022/01/09 14:09:35;;;;;;;7.47;7.07;;;4.10;1.00;;;;;;6328039;27;20328;-81
2022/01/09 14:12:38;;;;;;;8.00;7.50;;;4.20;1.00;;;;;;6331529;27;20233;-80
2022/01/09 14:15:41;;;;;;;8.57;7.97;;;4.20;1.00;;;;;;6322433;27;20258;-78
2022/01/09 14:18:44;;;;;;;8.50;7.83;;;4.20;1.00;;;;;;6329059;28;20229;-81
2022/01/09 14:21:51;;;;;;;8.07;7.47;;;4.20;1.00;;;;;;6308573;27;20315;-81
2022/01/09 14:25:05;;;;;;;7.77;7.20;;;4.10;1.00;;;;;;6327519;28;20315;-79
2022/01/09 14:28:11;;;;;;;8.50;7.90;;;4.20;1.00;;;;;;6326303;27;20575;-79
2022/01/09 14:31:15;;;;;;;8.63;7.97;;;4.10;1.00;;;;;;6315654;27;20327;-80
2022/01/09 14:34:18;;;;;;;8.23;7.53;;;4.40;1.00;;;;;;6320451;28;20598;-80
2022/01/09 14:37:22;;;;;;;8.27;7.67;;;4.20;1.00;;;;;;6325544;28;20518;-82
2022/01/09 14:40:27;;;;;;;10.03;7.80;;;4.10;1.00;;;;;;6337510;27;20251;-78
2022/01/09 14:43:32;;;;;;;8.57;7.90;;;4.10;1.00;;;;;;6342162;28;20931;-81
2022/01/09 14:46:37;;;;;;;9.43;8.53;;;4.10;1.00;;;;;;6335053;28;20294;-81
2022/01/09 14:49:40;;;;;;;9.40;8.57;;;3.90;1.00;;;;;;6314370;27;20880;-80
2022/01/09 14:52:43;;;;;;;9.23;8.53;;;4.20;1.00;;;;;;6319760;28;20228;-80
2022/01/09 14:55:47;;;;;;;10.13;9.17;;;4.00;1.00;;;;;;6302268;28;20328;-82
2022/01/09 14:58:50;;;;;;;9.80;8.77;;;4.00;1.00;;;;;;6302703;28;20360;-79
2022/01/09 15:01:53;;;;;;;10.27;9.37;;;4.20;1.00;;;;;;6308848;28;20921;-86
2022/01/09 15:04:55;;;;;;;8.70;8.10;;;4.10;1.00;;;;;;6308659;28;20247;-80
2022/01/09 15:08:01;;;;;;;8.83;8.03;;;4.20;1.00;;;;;;6303055;28;20244;-82
2022/01/09 15:11:07;;;;;;;10.27;8.83;;;4.20;1.00;;;;;;6314471;28;20315;-79
2022/01/09 15:14:10;;;;;;;9.57;8.87;;;4.10;1.00;;;;;;6309017;28;20902;-79
2022/01/09 15:17:13;;;;;;;8.80;8.00;;;4.20;1.00;;;;;;6298114;28;20220;-80
2022/01/09 15:20:17;;;;;;;9.10;8.30;;;4.30;1.00;;;;;;6313326;27;20852;-81
2022/01/09 15:23:20;;;;;;;9.53;8.63;;;4.20;1.00;;;;;;6292570;28;20242;-79
2022/01/09 15:26:24;;;;;;;9.53;8.73;;;4.30;1.00;;;;;;6320993;28;20347;-79
2022/01/09 15:29:27;;;;;;;9.37;7.90;;;4.00;1.00;;;;;;6335872;27;20295;-82
2022/01/09 15:32:30;;;;;;;10.10;9.30;;;4.20;1.00;;;;;;6327725;28;20285;-81
2022/01/09 15:35:33;;;;;;;10.00;9.20;;;3.90;1.00;;;;;;6330486;28;20247;-80
2022/01/09 15:38:36;;;;;;;10.60;9.70;;;4.20;1.00;;;;;;6328237;28;20772;-79
2022/01/09 15:41:41;;;;;;;9.83;9.03;;;4.10;1.00;;;;;;6323831;28;20243;-80
2022/01/09 15:44:43;;;;;;;10.30;9.20;;;4.10;1.00;;;;;;6339242;28;20306;-81
2022/01/09 15:47:48;;;;;;;9.93;9.07;;;4.00;1.00;;;;;;6320174;28;20230;-81
2022/01/09 15:50:51;;;;;;;9.70;8.80;;;4.10;1.00;;;;;;6319429;28;20623;-79
2022/01/09 15:53:54;;;;;;;10.90;9.70;;;4.30;1.00;;;;;;6322727;28;20246;-83
2022/01/09 15:56:58;;;;;;;9.77;8.87;;;4.20;1.00;;;;;;6328558;28;20227;-79
2022/01/09 16:00:01;;;;;;;10.40;9.43;;;4.10;1.00;;;;;;6318817;28;20369;-80
2022/01/09 16:03:04;;;;;;;10.40;9.50;;;4.20;1.00;;;;;;6321395;28;20232;-81
2022/01/09 16:06:08;;;;;;;10.20;9.30;;;4.10;1.00;;;;;;6325465;28;20261;-79
2022/01/09 16:09:12;;;;;;;10.70;9.80;;;4.30;1.00;;;;;;6328480;28;20289;-78
2022/01/09 16:12:16;;;;;;;10.43;9.53;;;4.30;1.00;;;;;;6321324;28;20229;-80
2022/01/09 16:15:19;;;;;;;10.40;9.47;;;4.00;1.00;;;;;;6327592;28;20230;-80
2022/01/09 16:18:22;;;;;;;10.47;9.50;;;4.30;1.00;;;;;;6326743;28;20235;-78